< < Back
Terminal Aerodrome Forecast


Current Version              Previous Versions:   1  2  3  4  5  6  7  8  9  

Terminal Aerodrome Forecast

217
FTUS42 KJAX 302300
TAFGNV
TAF
KGNV 302320Z 0100/0124 04003KT P6SM SCT015 BKN025 OVC040
     FM010800 02002KT 5SM BR SCT050
     FM011100 00000KT 1SM BR BKN020 BKN050
     FM011300 04003KT 4SM BR BKN025 BKN050
     FM011500 06006KT P6SM SCT025
     FM011800 07007KT P6SM BKN035=

Latest METAR

753
SAUS70 KWBC 011200 RRV
MTRGNV
METAR KGNV 011153Z 01003KT 10SM OVC028 22/21 A2993 RMK AO2 SLP133 70001
T02220206 10228 20222 53013


USA.gov is the U.S. government's official web portal to all federal, state and local government web resources and services.